createdAt,value
2023-01-15T00:00:09.195Z,51.45
2023-01-15T00:02:37.415Z,40.38
2023-01-15T00:05:05.619Z,48.20
2023-01-15T00:07:33.356Z,50.00
2023-01-15T00:10:01.046Z,45.38
2023-01-15T00:12:28.697Z,45.28
2023-01-15T00:14:58.382Z,48.88
2023-01-15T00:17:26.584Z,44.33
2023-01-15T00:19:54.252Z,49.63
2023-01-15T00:22:21.853Z,52.75
2023-01-15T00:25:08.042Z,50.97
2023-01-15T00:27:38.834Z,47.63
2023-01-15T00:30:07.992Z,37.03
2023-01-15T00:32:43.047Z,42.45
2023-01-15T00:37:44.703Z,48.05
2023-01-15T00:40:13.393Z,45.97
2023-01-15T00:42:41.166Z,51.42
2023-01-15T00:45:10.663Z,44.28
2023-01-15T00:47:40.263Z,50.92
2023-01-15T00:50:10.360Z,39.05
2023-01-15T00:52:38.853Z,42.28
2023-01-15T00:55:07.082Z,50.03
2023-01-15T00:57:35.341Z,47.75
2023-01-15T01:00:04.382Z,50.13
2023-01-15T01:02:32.418Z,50.38
2023-01-15T01:05:01.015Z,49.20
2023-01-15T01:07:28.764Z,54.65
2023-01-15T01:09:56.643Z,56.13
2023-01-15T01:12:24.292Z,58.38
2023-01-15T01:14:52.230Z,51.38
2023-01-15T01:17:20.305Z,56.28
2023-01-15T01:19:48.714Z,56.35
2023-01-15T01:22:16.441Z,39.78
2023-01-15T01:24:44.143Z,45.13
2023-01-15T01:27:12.012Z,60.22
2023-01-15T01:29:39.949Z,44.47
2023-01-15T01:32:07.547Z,43.65
2023-01-15T01:34:39.212Z,42.38
2023-01-15T01:37:06.907Z,52.58
2023-01-15T01:39:34.543Z,56.97
2023-01-15T01:42:02.201Z,42.22
2023-01-15T01:44:33.343Z,44.35
2023-01-15T01:49:29.600Z,49.30
2023-01-15T01:52:08.439Z,45.40
2023-01-15T01:54:36.425Z,39.60
2023-01-15T01:57:04.336Z,44.97
2023-01-15T01:59:32.269Z,45.03
2023-01-15T02:02:00.085Z,48.58
2023-01-15T02:04:27.901Z,49.88
2023-01-15T02:06:55.476Z,42.47
2023-01-15T02:09:23.619Z,41.83
2023-01-15T02:11:55.866Z,46.40
2023-01-15T02:14:48.054Z,49.80
2023-01-15T02:17:20.825Z,47.97
2023-01-15T02:20:24.236Z,42.13
2023-01-15T02:23:22.720Z,55.78
2023-01-15T02:26:14.664Z,56.35
2023-01-15T02:28:43.719Z,52.50
2023-01-15T02:31:27.447Z,43.25
2023-01-15T02:34:10.472Z,51.50
2023-01-15T02:36:41.399Z,54.53
2023-01-15T02:39:15.669Z,49.65
2023-01-15T02:41:45.910Z,54.58
2023-01-15T02:44:14.643Z,47.57
2023-01-15T02:46:42.402Z,54.63
2023-01-15T02:49:13.903Z,42.80
2023-01-15T02:51:55.397Z,50.45
2023-01-15T02:54:24.467Z,49.70
2023-01-15T02:56:52.757Z,62.20
2023-01-15T02:59:23.358Z,56.03
2023-01-15T03:01:57.283Z,31.38
2023-01-15T03:04:46.732Z,45.80
2023-01-15T03:07:26.739Z,49.47
2023-01-15T03:09:55.729Z,52.58
2023-01-15T03:12:28.547Z,47.33
2023-01-15T03:15:42.955Z,46.10
2023-01-15T03:18:11.724Z,54.85
2023-01-15T03:20:41.567Z,54.85
2023-01-15T03:23:12.371Z,50.15
2023-01-15T03:25:42.860Z,62.22
2023-01-15T03:28:10.986Z,51.80
2023-01-15T03:30:40.315Z,57.40
2023-01-15T03:33:11.759Z,52.08
2023-01-15T03:35:48.011Z,52.35
2023-01-15T03:38:38.901Z,51.20
2023-01-15T03:41:26.303Z,54.63
2023-01-15T03:44:15.749Z,55.15
2023-01-15T03:47:21.472Z,55.25
2023-01-15T03:49:55.428Z,54.72
2023-01-15T03:52:48.668Z,47.50
2023-01-15T03:55:20.108Z,48.30
2023-01-15T03:58:00.148Z,46.40
2023-01-15T04:00:35.977Z,40.22
2023-01-15T04:03:05.220Z,43.28
2023-01-15T04:05:34.682Z,41.05
2023-01-15T04:08:03.998Z,50.47
2023-01-15T04:10:32.975Z,51.25
2023-01-15T04:13:02.623Z,52.22
2023-01-15T04:15:30.407Z,58.40
2023-01-15T04:17:58.123Z,50.85
2023-01-15T04:20:28.448Z,48.58
2023-01-15T04:25:27.236Z,56.38
2023-01-15T04:27:55.413Z,47.95
2023-01-15T04:30:25.584Z,56.55
2023-01-15T04:32:53.294Z,50.40
2023-01-15T04:35:20.991Z,56.05
2023-01-15T04:37:59.120Z,60.10
2023-01-15T04:40:45.265Z,55.60
2023-01-15T04:43:32.483Z,49.63
2023-01-15T04:46:00.276Z,52.50
2023-01-15T04:48:27.917Z,48.38
2023-01-15T04:50:55.671Z,51.90
2023-01-15T04:53:23.421Z,44.58
2023-01-15T04:55:51.113Z,51.25
2023-01-15T04:58:18.777Z,51.38
2023-01-15T05:00:46.339Z,54.30
2023-01-15T05:03:13.943Z,56.47
2023-01-15T05:05:41.645Z,54.80
2023-01-15T05:08:09.451Z,50.05
2023-01-15T05:10:37.325Z,57.08
2023-01-15T05:13:05.174Z,54.83
2023-01-15T05:15:33.162Z,53.45
2023-01-15T05:18:00.762Z,56.85
2023-01-15T05:20:28.628Z,55.35
2023-01-15T05:22:56.412Z,57.33
2023-01-15T05:25:28.021Z,54.35
2023-01-15T05:27:55.679Z,44.80
2023-01-15T05:30:23.264Z,50.22
2023-01-15T05:32:50.835Z,54.55
2023-01-15T05:35:18.752Z,55.55
2023-01-15T05:37:46.545Z,53.78
2023-01-15T05:40:14.235Z,66.22
2023-01-15T05:42:41.879Z,60.10
2023-01-15T05:45:09.872Z,58.00
2023-01-15T05:47:37.542Z,58.50
2023-01-15T05:50:05.558Z,63.47
2023-01-15T05:52:33.513Z,62.70
2023-01-15T05:55:01.167Z,69.53
2023-01-15T05:57:29.058Z,65.32
2023-01-15T05:59:57.033Z,61.25
2023-01-15T06:02:24.790Z,61.17
2023-01-15T06:04:52.453Z,68.97
2023-01-15T06:07:20.230Z,79.07
2023-01-15T06:09:47.889Z,80.65
2023-01-15T06:12:15.639Z,79.30
2023-01-15T06:14:43.989Z,76.15
2023-01-15T06:17:11.936Z,76.30
2023-01-15T06:19:39.609Z,67.60
2023-01-15T06:22:08.661Z,76.00
2023-01-15T06:24:37.318Z,76.75
2023-01-15T06:27:05.178Z,77.22
2023-01-15T06:29:32.975Z,77.30
2023-01-15T06:32:00.645Z,81.93
2023-01-15T06:34:28.248Z,87.78
2023-01-15T06:36:55.845Z,78.90
2023-01-15T06:39:25.883Z,77.85
2023-01-15T06:42:12.136Z,73.13
2023-01-15T06:44:58.077Z,68.30
2023-01-15T06:47:27.464Z,77.10
2023-01-15T06:49:57.745Z,86.28
2023-01-15T06:52:26.289Z,59.13
2023-01-15T06:54:54.009Z,128.38
2023-01-15T06:57:21.818Z,78.15
2023-01-15T06:59:49.814Z,79.30
2023-01-15T07:02:18.417Z,70.88
2023-01-15T07:04:47.050Z,76.63
2023-01-15T07:07:18.683Z,83.95
2023-01-15T07:09:46.308Z,81.25
2023-01-15T07:12:14.059Z,78.95
2023-01-15T07:14:41.737Z,89.22
2023-01-15T07:17:09.595Z,93.80
2023-01-15T07:19:37.998Z,93.30
2023-01-15T07:22:06.691Z,81.00
2023-01-15T07:24:34.417Z,84.32
2023-01-15T07:27:02.569Z,97.68
2023-01-15T07:29:31.520Z,162.05
2023-01-15T07:31:59.292Z,103.50
2023-01-15T07:34:26.881Z,110.15
2023-01-15T07:36:54.458Z,128.60
2023-01-15T07:39:22.381Z,99.93
2023-01-15T07:42:08.855Z,95.70
2023-01-15T07:44:54.913Z,80.90
2023-01-15T07:47:42.474Z,90.22
2023-01-15T07:50:13.233Z,75.15
2023-01-15T07:55:10.306Z,82.03
2023-01-15T07:57:37.926Z,75.85
2023-01-15T08:00:14.070Z,62.60
2023-01-15T08:02:46.168Z,74.97
2023-01-15T08:05:13.821Z,68.57
2023-01-15T08:07:41.903Z,65.03
2023-01-15T08:10:13.483Z,74.50
2023-01-15T08:15:51.653Z,79.85
2023-01-15T08:18:19.325Z,70.28
2023-01-15T08:20:47.370Z,67.18
2023-01-15T08:23:15.062Z,65.13
2023-01-15T08:25:42.791Z,73.22
2023-01-15T08:28:14.320Z,68.30
2023-01-15T08:30:42.556Z,62.15
2023-01-15T08:33:10.135Z,53.88
2023-01-15T08:35:38.391Z,68.55
2023-01-15T08:38:07.036Z,55.97
2023-01-15T08:40:58.679Z,57.97
2023-01-15T08:43:27.514Z,71.15
2023-01-15T08:46:03.593Z,54.35
2023-01-15T08:48:31.695Z,66.75
2023-01-15T08:50:59.515Z,64.10
2023-01-15T08:53:29.906Z,52.05
2023-01-15T08:55:58.252Z,50.35
2023-01-15T08:58:31.402Z,48.80
2023-01-15T09:01:09.288Z,56.53
2023-01-15T09:03:37.155Z,57.72
2023-01-15T09:06:06.182Z,47.15
2023-01-15T09:08:34.946Z,54.72
2023-01-15T09:11:03.777Z,53.88
2023-01-15T09:13:32.300Z,59.53
2023-01-15T09:16:01.621Z,56.78
2023-01-15T09:18:30.468Z,48.33
2023-01-15T09:20:58.858Z,58.78
2023-01-15T09:23:27.525Z,48.10
2023-01-15T09:26:19.841Z,54.05
2023-01-15T09:28:47.676Z,47.50
2023-01-15T09:31:16.915Z,63.97
2023-01-15T09:33:45.398Z,57.28
2023-01-15T09:36:24.857Z,50.47
2023-01-15T09:38:52.942Z,57.90
2023-01-15T09:41:39.778Z,56.80
2023-01-15T09:44:26.271Z,59.88
2023-01-15T09:47:09.520Z,58.25
2023-01-15T09:50:08.958Z,61.72
2023-01-15T09:53:14.259Z,52.00
2023-01-15T09:55:50.858Z,50.22
2023-01-15T09:58:22.995Z,57.30
2023-01-15T10:00:51.346Z,50.65
2023-01-15T10:03:23.545Z,49.67
2023-01-15T10:05:55.948Z,54.97
2023-01-15T10:08:26.796Z,51.60
2023-01-15T10:11:02.360Z,39.83
2023-01-15T10:13:44.106Z,56.28
2023-01-15T10:16:14.505Z,55.13
2023-01-15T10:18:43.955Z,65.10
2023-01-15T10:21:30.851Z,64.65
2023-01-15T10:24:26.755Z,55.67
2023-01-15T10:26:58.580Z,52.08
2023-01-15T10:29:43.389Z,54.58
2023-01-15T10:32:14.387Z,47.78
2023-01-15T10:35:10.470Z,53.85
2023-01-15T10:37:42.377Z,46.90
2023-01-15T10:40:45.067Z,61.28
2023-01-15T10:43:44.586Z,51.83
2023-01-15T10:46:18.161Z,54.78
2023-01-15T10:49:01.552Z,53.15
2023-01-15T10:51:46.125Z,54.83
2023-01-15T10:54:40.679Z,55.13
2023-01-15T10:57:12.072Z,56.45
2023-01-15T10:59:46.602Z,51.20
2023-01-15T11:02:27.997Z,51.05
2023-01-15T11:04:55.951Z,53.53
2023-01-15T11:08:06.561Z,51.83
2023-01-15T11:10:33.972Z,56.08
2023-01-15T11:13:41.322Z,55.78
2023-01-15T11:16:34.122Z,53.22
2023-01-15T11:19:22.406Z,55.95
2023-01-15T11:21:50.807Z,62.78
2023-01-15T11:24:18.812Z,55.67
2023-01-15T11:26:52.178Z,65.78
2023-01-15T11:29:34.301Z,68.38
2023-01-15T11:32:02.388Z,63.35
2023-01-15T11:34:33.504Z,59.45
2023-01-15T11:37:04.416Z,60.15
2023-01-15T11:39:32.474Z,66.95
2023-01-15T11:42:20.580Z,65.78
2023-01-15T11:45:14.803Z,58.08
2023-01-15T11:48:14.249Z,64.70
2023-01-15T11:51:00.683Z,56.88
2023-01-15T11:53:30.114Z,53.85
2023-01-15T11:56:02.414Z,64.22
2023-01-15T11:58:38.771Z,65.15
2023-01-15T12:01:07.315Z,60.78
2023-01-15T12:03:36.051Z,69.10
2023-01-15T12:06:08.449Z,67.40
2023-01-15T12:08:44.476Z,58.15
2023-01-15T12:11:27.055Z,58.65
2023-01-15T12:13:58.674Z,53.25
2023-01-15T12:16:53.698Z,50.40
2023-01-15T12:19:41.602Z,56.80
2023-01-15T12:22:49.865Z,56.25
2023-01-15T12:25:24.264Z,58.00
2023-01-15T12:28:00.217Z,62.78
2023-01-15T12:30:41.706Z,62.75
2023-01-15T12:33:19.055Z,58.88
2023-01-15T12:36:17.287Z,58.53
2023-01-15T12:39:22.249Z,65.88
2023-01-15T12:42:16.311Z,60.22
2023-01-15T12:45:01.775Z,63.22
2023-01-15T12:47:52.976Z,66.30
2023-01-15T12:50:36.947Z,62.47
2023-01-15T12:53:14.247Z,65.03
2023-01-15T12:55:58.610Z,62.85
2023-01-15T12:58:48.391Z,70.13
2023-01-15T13:01:28.114Z,62.10
2023-01-15T13:04:14.735Z,57.58
2023-01-15T13:06:51.864Z,59.83
2023-01-15T13:09:39.137Z,64.78
2023-01-15T13:12:14.823Z,59.20
2023-01-15T13:14:47.404Z,60.47
2023-01-15T13:17:24.507Z,64.47
2023-01-15T13:20:22.836Z,68.35
2023-01-15T13:23:26.887Z,61.05
2023-01-15T13:25:54.639Z,76.97
2023-01-15T13:28:42.052Z,64.82
2023-01-15T13:31:30.217Z,74.45
2023-01-15T13:34:00.602Z,68.45
2023-01-15T13:36:41.197Z,72.75
2023-01-15T13:39:16.511Z,57.97
2023-01-15T13:42:07.131Z,66.20
2023-01-15T13:44:38.369Z,60.72
2023-01-15T13:49:38.075Z,76.03
2023-01-15T13:52:07.710Z,53.90
2023-01-15T13:54:41.849Z,71.15
2023-01-15T13:57:10.942Z,80.65
2023-01-15T13:59:44.215Z,72.25
2023-01-15T14:02:28.464Z,70.70
2023-01-15T14:04:57.200Z,68.32
2023-01-15T14:07:35.927Z,48.08
2023-01-15T14:10:22.146Z,62.72
2023-01-15T14:13:02.049Z,65.10
2023-01-15T14:15:48.300Z,76.43
2023-01-15T14:18:25.181Z,68.65
2023-01-15T14:21:08.160Z,84.60
2023-01-15T14:23:57.149Z,72.88
2023-01-15T14:26:48.705Z,79.47
2023-01-15T14:29:48.000Z,91.07
2023-01-15T14:32:31.134Z,72.10
2023-01-15T14:35:00.448Z,67.53
2023-01-15T14:37:49.308Z,66.00
2023-01-15T14:40:25.217Z,66.32
2023-01-15T14:43:02.923Z,69.95
2023-01-15T14:45:43.623Z,57.38
2023-01-15T14:48:21.529Z,81.20
2023-01-15T14:50:50.373Z,74.93
2023-01-15T14:53:29.893Z,77.97
2023-01-15T14:56:27.605Z,70.93
2023-01-15T14:59:29.201Z,72.60
2023-01-15T15:04:49.198Z,77.75
2023-01-15T15:07:18.449Z,97.28
2023-01-15T15:09:48.237Z,97.95
2023-01-15T15:12:31.199Z,81.72
2023-01-15T15:15:13.079Z,86.78
2023-01-15T15:17:59.856Z,86.05
2023-01-15T15:20:31.781Z,82.05
2023-01-15T15:23:09.103Z,76.10
2023-01-15T15:25:39.411Z,90.07
2023-01-15T15:28:10.861Z,105.88
2023-01-15T15:30:45.442Z,108.10
2023-01-15T15:33:20.613Z,101.85
2023-01-15T15:35:54.414Z,83.30
2023-01-15T15:38:24.252Z,89.53
2023-01-15T15:41:02.984Z,98.68
2023-01-15T15:44:09.613Z,96.00
2023-01-15T15:46:57.045Z,88.95
2023-01-15T15:49:25.600Z,110.03
2023-01-15T15:51:54.929Z,115.47
2023-01-15T15:54:24.311Z,104.72
2023-01-15T15:56:59.247Z,112.25
2023-01-15T15:59:38.031Z,125.20
2023-01-15T16:02:21.586Z,91.78
2023-01-15T16:04:51.413Z,90.70
2023-01-15T16:07:25.278Z,96.30
2023-01-15T16:10:14.736Z,93.68
2023-01-15T16:12:46.493Z,88.88
2023-01-15T16:18:06.331Z,93.38
2023-01-15T16:20:34.306Z,105.22
2023-01-15T16:23:04.691Z,104.57
2023-01-15T16:25:34.602Z,103.95
2023-01-15T16:28:02.617Z,95.45
2023-01-15T16:30:32.705Z,111.95
2023-01-15T16:33:05.678Z,99.55
2023-01-15T16:35:59.581Z,111.70
2023-01-15T16:38:27.813Z,113.55
2023-01-15T16:40:56.790Z,106.53
2023-01-15T16:43:25.768Z,114.88
2023-01-15T16:45:56.542Z,108.20
2023-01-15T16:48:30.368Z,116.75
2023-01-15T16:50:58.800Z,109.30
2023-01-15T16:53:37.161Z,100.53
2023-01-15T16:56:06.087Z,98.68
2023-01-15T17:01:23.934Z,96.47
2023-01-15T17:03:53.321Z,92.32
2023-01-15T17:06:23.307Z,96.95
2023-01-15T17:08:51.189Z,94.50
2023-01-15T17:11:30.190Z,97.25
2023-01-15T17:14:20.557Z,102.63
2023-01-15T17:16:48.884Z,129.80
2023-01-15T17:19:17.415Z,143.43
2023-01-15T17:21:48.067Z,135.27
2023-01-15T17:24:16.583Z,163.43
2023-01-15T17:26:45.460Z,135.80
2023-01-15T17:29:13.885Z,128.38
2023-01-15T17:31:46.162Z,115.25
2023-01-15T17:34:14.058Z,137.07
2023-01-15T17:36:42.594Z,137.70
2023-01-15T17:39:14.723Z,122.00
2023-01-15T17:41:42.951Z,125.13
2023-01-15T17:44:12.315Z,121.03
2023-01-15T17:46:41.267Z,134.52
2023-01-15T17:49:09.172Z,129.45
2023-01-15T17:51:38.207Z,123.50
2023-01-15T17:54:06.850Z,126.28
2023-01-15T17:56:54.001Z,126.05
2023-01-15T17:59:40.218Z,104.00
2023-01-15T18:02:30.698Z,138.70
2023-01-15T18:05:18.260Z,132.80
2023-01-15T18:07:46.910Z,116.25
2023-01-15T18:10:19.238Z,133.75
2023-01-15T18:12:47.891Z,131.75
2023-01-15T18:15:17.299Z,117.10
2023-01-15T18:17:46.509Z,104.50
2023-01-15T18:20:14.817Z,111.20
2023-01-15T18:22:44.544Z,118.90
2023-01-15T18:25:12.766Z,119.25
2023-01-15T18:27:43.571Z,108.57
2023-01-15T18:30:12.911Z,145.40
2023-01-15T18:32:41.692Z,125.85
2023-01-15T18:35:12.108Z,125.88
2023-01-15T18:37:41.795Z,110.32
2023-01-15T18:40:10.870Z,110.95
2023-01-15T18:42:58.627Z,113.00
2023-01-15T18:45:48.475Z,130.25
2023-01-15T18:48:16.325Z,105.05
2023-01-15T18:50:44.916Z,118.57
2023-01-15T18:53:16.079Z,120.20
2023-01-15T18:55:44.959Z,116.55
2023-01-15T18:58:12.857Z,109.55
2023-01-15T19:00:41.147Z,126.95
2023-01-15T19:03:09.044Z,137.80
2023-01-15T19:05:38.103Z,154.48
2023-01-15T19:08:07.079Z,146.73
2023-01-15T19:10:35.631Z,147.32
2023-01-15T19:13:06.185Z,165.18
2023-01-15T19:15:54.755Z,160.77
2023-01-15T19:18:41.295Z,160.02
2023-01-15T19:21:12.654Z,149.68
2023-01-15T19:26:08.663Z,167.68
2023-01-15T19:28:37.631Z,150.18
2023-01-15T19:31:27.482Z,169.75
2023-01-15T19:34:13.138Z,170.02
2023-01-15T19:36:46.747Z,151.25
2023-01-15T19:39:16.829Z,180.63
2023-01-15T19:42:04.633Z,177.65
2023-01-15T19:44:52.933Z,166.23
2023-01-15T19:48:06.224Z,158.50
2023-01-15T19:50:44.472Z,161.10
2023-01-15T19:53:13.590Z,187.35
2023-01-15T19:55:45.695Z,181.65
2023-01-15T19:58:14.333Z,195.82
2023-01-15T20:00:44.362Z,199.48
2023-01-15T20:03:13.013Z,200.77
2023-01-15T20:05:41.922Z,178.05
2023-01-15T20:08:13.262Z,182.88
2023-01-15T20:10:49.214Z,197.38
2023-01-15T20:13:38.866Z,220.20
2023-01-15T20:16:14.393Z,194.07
2023-01-15T20:18:43.024Z,210.02
2023-01-15T20:21:14.951Z,187.00
2023-01-15T20:23:43.083Z,232.73
2023-01-15T20:26:12.083Z,236.10
2023-01-15T20:28:41.243Z,228.15
2023-01-15T20:31:17.418Z,240.15
2023-01-15T20:33:46.615Z,264.20
2023-01-15T20:36:15.196Z,235.93
2023-01-15T20:38:43.337Z,256.30
2023-01-15T20:41:31.540Z,229.73
2023-01-15T20:44:18.968Z,250.68
2023-01-15T20:46:46.809Z,224.60
2023-01-15T20:49:28.500Z,237.05
2023-01-15T20:51:56.805Z,262.65
2023-01-15T20:54:26.111Z,263.88
2023-01-15T20:56:54.612Z,244.90
2023-01-15T20:59:22.617Z,290.88
2023-01-15T21:01:50.857Z,245.85
2023-01-15T21:04:20.097Z,245.20
2023-01-15T21:06:48.360Z,249.32
2023-01-15T21:09:16.836Z,260.05
2023-01-15T21:11:44.924Z,263.42
2023-01-15T21:14:13.734Z,270.50
2023-01-15T21:16:42.236Z,287.20
2023-01-15T21:19:10.237Z,258.77
2023-01-15T21:21:38.885Z,262.77
2023-01-15T21:24:07.799Z,238.00
2023-01-15T21:26:36.505Z,234.35
2023-01-15T21:29:04.314Z,226.50
2023-01-15T21:31:32.985Z,239.43
2023-01-15T21:34:01.931Z,234.70
2023-01-15T21:36:30.061Z,223.93
2023-01-15T21:38:59.335Z,213.98
2023-01-15T21:41:45.636Z,230.60
2023-01-15T21:44:43.242Z,219.68
2023-01-15T21:47:13.192Z,226.65
2023-01-15T21:49:42.085Z,204.30
2023-01-15T21:52:18.368Z,207.90
2023-01-15T21:54:46.941Z,203.30
2023-01-15T21:57:15.972Z,190.80
2023-01-15T21:59:44.379Z,211.07
2023-01-15T22:02:17.592Z,205.43
2023-01-15T22:04:45.751Z,198.55
2023-01-15T22:07:14.286Z,170.35
2023-01-15T22:09:42.102Z,197.38
2023-01-15T22:12:10.361Z,199.23
2023-01-15T22:14:39.326Z,181.65
2023-01-15T22:17:07.807Z,156.63
2023-01-15T22:19:36.420Z,115.50
2023-01-15T22:22:11.396Z,110.82
2023-01-15T22:24:41.665Z,148.32
2023-01-15T22:27:12.497Z,112.00
2023-01-15T22:29:40.889Z,85.47
2023-01-15T22:32:12.006Z,115.28
2023-01-15T22:34:40.868Z,103.32
2023-01-15T22:37:08.761Z,109.53
2023-01-15T22:39:37.091Z,119.70
2023-01-15T22:42:24.102Z,109.72
2023-01-15T22:44:53.158Z,117.43
2023-01-15T22:47:21.357Z,127.32
2023-01-15T22:49:49.858Z,136.52
2023-01-15T22:52:17.651Z,125.05
2023-01-15T22:54:47.113Z,121.38
2023-01-15T22:57:16.378Z,128.77
2023-01-15T22:59:45.249Z,123.10
2023-01-15T23:02:13.501Z,116.57
2023-01-15T23:04:41.588Z,122.00
2023-01-15T23:07:10.090Z,121.18
2023-01-15T23:09:40.137Z,105.82
2023-01-15T23:12:07.956Z,111.45
2023-01-15T23:14:37.299Z,100.50
2023-01-15T23:17:05.865Z,101.53
2023-01-15T23:19:34.196Z,107.90
2023-01-15T23:22:02.547Z,95.32
2023-01-15T23:24:31.297Z,108.20
2023-01-15T23:27:00.107Z,102.55
2023-01-15T23:29:29.021Z,116.70
2023-01-15T23:31:56.808Z,100.78
2023-01-15T23:34:26.053Z,104.22
2023-01-15T23:36:53.911Z,112.88
2023-01-15T23:39:21.977Z,111.15
2023-01-15T23:42:08.368Z,110.45
2023-01-15T23:44:55.447Z,106.18
2023-01-15T23:47:23.222Z,105.15
2023-01-15T23:49:51.967Z,112.85
2023-01-15T23:52:20.004Z,104.55
2023-01-15T23:54:47.799Z,101.45
2023-01-15T23:57:16.804Z,103.18
2023-01-15T23:59:44.989Z,114.38
